createdAt,value
2019-02-10T00:02:14.943Z,6.11
2019-02-10T00:04:45.339Z,6.11
2019-02-10T00:07:15.826Z,6.10
2019-02-10T00:09:46.455Z,6.19
2019-02-10T00:12:17.078Z,6.15
2019-02-10T00:14:48.837Z,6.14
2019-02-10T00:17:19.305Z,6.18
2019-02-10T00:19:49.687Z,6.29
2019-02-10T00:22:20.231Z,6.37
2019-02-10T00:24:54.282Z,6.39
2019-02-10T00:27:24.793Z,6.43
2019-02-10T00:29:55.421Z,6.42
2019-02-10T00:32:25.986Z,6.45
2019-02-10T00:34:56.405Z,6.49
2019-02-10T00:37:26.810Z,6.50
2019-02-10T00:39:57.207Z,6.50
2019-02-10T00:42:27.632Z,6.51
2019-02-10T00:44:57.998Z,6.49
2019-02-10T00:47:28.353Z,6.54
2019-02-10T00:49:58.698Z,6.56
2019-02-10T00:52:29.089Z,6.60
2019-02-10T00:54:59.574Z,6.52
2019-02-10T00:57:30.152Z,6.46
2019-02-10T01:00:00.550Z,6.60
2019-02-10T01:02:31.436Z,6.50
2019-02-10T01:05:02.124Z,6.57
2019-02-10T01:07:32.764Z,6.51
2019-02-10T01:10:03.168Z,6.58
2019-02-10T01:12:33.562Z,6.55
2019-02-10T01:15:03.868Z,6.57
2019-02-10T01:17:34.475Z,6.47
2019-02-10T01:20:04.907Z,6.43
2019-02-10T01:22:35.272Z,6.42
2019-02-10T01:25:05.821Z,6.39
2019-02-10T01:27:36.268Z,6.37
2019-02-10T01:30:07.479Z,6.48
2019-02-10T01:32:37.933Z,6.29
2019-02-10T01:35:08.376Z,6.30
2019-02-10T01:37:39.507Z,6.33
2019-02-10T01:40:11.291Z,6.21
2019-02-10T01:42:42.182Z,6.19
2019-02-10T01:45:13.168Z,6.18
2019-02-10T01:47:43.548Z,6.08
2019-02-10T01:50:13.919Z,6.05
2019-02-10T01:52:44.322Z,5.98
2019-02-10T01:55:15.208Z,5.83
2019-02-10T01:57:46.072Z,5.78
2019-02-10T02:00:17.352Z,5.71
2019-02-10T02:02:47.660Z,5.75
2019-02-10T02:05:18.119Z,5.77
2019-02-10T02:07:48.762Z,5.73
2019-02-10T02:10:19.132Z,5.76
2019-02-10T02:12:50.028Z,5.69
2019-02-10T02:15:20.442Z,5.61
2019-02-10T02:17:50.826Z,5.57
2019-02-10T02:20:21.131Z,5.58
2019-02-10T02:22:51.537Z,5.68
2019-02-10T02:25:21.832Z,5.60
2019-02-10T02:27:52.632Z,5.70
2019-02-10T02:30:23.108Z,5.61
2019-02-10T02:32:53.502Z,5.49
2019-02-10T02:35:23.853Z,5.51
2019-02-10T02:37:54.547Z,5.35
2019-02-10T02:40:24.901Z,5.31
2019-02-10T02:42:55.351Z,5.37
2019-02-10T02:45:25.743Z,5.31
2019-02-10T02:47:56.056Z,5.42
2019-02-10T02:50:28.086Z,5.36
2019-02-10T02:52:58.427Z,5.36
2019-02-10T02:55:28.889Z,5.47
2019-02-10T02:57:59.511Z,5.52
2019-02-10T03:00:29.888Z,5.47
2019-02-10T03:03:05.152Z,5.46
2019-02-10T03:05:45.072Z,5.46
2019-02-10T03:08:15.645Z,5.42
2019-02-10T03:10:46.451Z,5.39
2019-02-10T03:13:16.961Z,5.37
2019-02-10T03:15:47.297Z,5.36
2019-02-10T03:18:18.211Z,5.43
2019-02-10T03:20:48.995Z,5.35
2019-02-10T03:23:19.365Z,5.43
2019-02-10T03:25:49.771Z,5.50
2019-02-10T03:28:20.082Z,5.62
2019-02-10T03:30:50.383Z,5.57
2019-02-10T03:33:20.775Z,5.70
2019-02-10T03:35:51.124Z,5.72
2019-02-10T03:38:22.922Z,5.62
2019-02-10T03:40:53.193Z,5.53
2019-02-10T03:43:23.600Z,5.42
2019-02-10T03:45:54.522Z,5.39
2019-02-10T03:48:24.916Z,5.31
2019-02-10T03:50:55.350Z,5.47
2019-02-10T03:53:25.721Z,5.43
2019-02-10T03:55:56.158Z,5.52
2019-02-10T03:58:26.600Z,5.42
2019-02-10T04:00:56.983Z,5.39
2019-02-10T04:03:27.384Z,5.22
2019-02-10T04:05:58.143Z,5.01
2019-02-10T04:08:28.571Z,5.03
2019-02-10T04:10:59.051Z,5.14
2019-02-10T04:13:29.435Z,5.16
2019-02-10T04:15:59.857Z,5.25
2019-02-10T04:18:30.314Z,5.33
2019-02-10T04:21:01.189Z,5.39
2019-02-10T04:23:31.598Z,5.51
2019-02-10T04:26:01.936Z,5.54
2019-02-10T04:28:32.642Z,5.71
2019-02-10T04:31:02.957Z,5.75
2019-02-10T04:33:33.431Z,5.69
2019-02-10T04:36:03.712Z,5.75
2019-02-10T04:38:33.994Z,5.72
2019-02-10T04:41:04.739Z,5.80
2019-02-10T04:43:35.136Z,5.87
2019-02-10T04:46:05.603Z,6.00
2019-02-10T04:48:36.030Z,6.00
2019-02-10T04:51:08.145Z,5.96
2019-02-10T04:53:38.509Z,6.09
2019-02-10T04:56:16.580Z,6.09
2019-02-10T04:58:47.295Z,6.20
2019-02-10T05:01:20.687Z,6.31
2019-02-10T05:03:50.976Z,6.31
2019-02-10T05:06:21.360Z,6.31
2019-02-10T05:08:51.816Z,6.33
2019-02-10T05:11:22.148Z,6.29
2019-02-10T05:13:52.529Z,6.33
2019-02-10T05:16:22.895Z,6.42
2019-02-10T05:18:53.242Z,6.35
2019-02-10T05:21:23.686Z,6.44
2019-02-10T05:24:02.794Z,6.55
2019-02-10T05:26:26.239Z,6.58
2019-02-10T05:28:57.025Z,6.55
2019-02-10T05:31:27.372Z,6.65
2019-02-10T05:33:57.750Z,6.66
2019-02-10T05:36:28.127Z,6.76
2019-02-10T05:38:58.513Z,6.78
2019-02-10T05:41:28.878Z,6.78
2019-02-10T05:43:59.171Z,6.82
2019-02-10T05:46:29.557Z,6.78
2019-02-10T05:48:59.928Z,6.78
2019-02-10T05:51:30.337Z,6.80
2019-02-10T05:54:01.031Z,6.75
2019-02-10T05:56:31.442Z,6.71
2019-02-10T05:59:01.912Z,6.77
2019-02-10T06:01:59.525Z,6.80
2019-02-10T06:04:30.282Z,6.72
2019-02-10T06:07:03.091Z,6.76
2019-02-10T06:09:33.387Z,6.80
2019-02-10T06:12:03.747Z,6.82
2019-02-10T06:14:34.131Z,6.80
2019-02-10T06:17:04.507Z,6.86
2019-02-10T06:19:35.024Z,6.83
2019-02-10T06:22:05.345Z,6.86
2019-02-10T06:24:36.044Z,6.84
2019-02-10T06:27:06.409Z,6.85
2019-02-10T06:29:36.862Z,6.89
2019-02-10T06:32:07.319Z,6.93
2019-02-10T06:34:37.657Z,6.98
2019-02-10T06:37:08.180Z,7.04
2019-02-10T06:39:38.505Z,7.05
2019-02-10T06:42:09.289Z,7.07
2019-02-10T06:44:39.733Z,7.13
2019-02-10T06:47:10.030Z,7.19
2019-02-10T06:49:40.453Z,7.23
2019-02-10T06:52:10.774Z,7.33
2019-02-10T06:54:46.183Z,7.31
2019-02-10T06:57:16.639Z,7.29
2019-02-10T06:59:52.729Z,7.44
2019-02-10T07:02:32.805Z,7.48
2019-02-10T07:05:03.176Z,7.42
2019-02-10T07:07:33.571Z,7.34
2019-02-10T07:10:03.953Z,7.33
2019-02-10T07:12:52.490Z,7.40
2019-02-10T07:15:57.663Z,7.36
2019-02-10T07:19:02.717Z,7.31
2019-02-10T07:21:42.542Z,7.34
2019-02-10T07:25:03.184Z,7.30
2019-02-10T07:27:34.190Z,7.27
2019-02-10T07:30:43.995Z,7.28
2019-02-10T07:34:00.719Z,7.27
2019-02-10T07:37:10.902Z,7.21
2019-02-10T07:40:15.242Z,7.24
2019-02-10T07:43:07.974Z,7.29
2019-02-10T07:45:59.878Z,7.39
2019-02-10T07:48:48.948Z,7.35
2019-02-10T07:51:41.335Z,7.49
2019-02-10T07:54:27.156Z,7.55
2019-02-10T07:57:22.171Z,7.61
2019-02-10T08:00:45.720Z,7.73
2019-02-10T08:03:51.090Z,7.83
2019-02-10T08:07:10.892Z,7.75
2019-02-10T08:10:23.943Z,7.70
2019-02-10T08:13:17.477Z,7.71
2019-02-10T08:16:12.160Z,7.70
2019-02-10T08:19:24.355Z,7.72
2019-02-10T08:22:52.880Z,7.78
2019-02-10T08:25:52.492Z,7.80
2019-02-10T08:29:05.128Z,7.80
2019-02-10T08:32:26.097Z,7.79
2019-02-10T08:35:42.758Z,7.89
2019-02-10T08:38:29.877Z,7.95
2019-02-10T08:41:35.064Z,7.95
2019-02-10T08:44:46.712Z,8.04
2019-02-10T08:47:55.072Z,8.06
2019-02-10T08:50:54.219Z,8.33
2019-02-10T08:53:29.048Z,8.42
2019-02-10T08:55:59.477Z,8.56
2019-02-10T08:58:31.016Z,8.66
2019-02-10T09:01:01.432Z,8.76
2019-02-10T09:03:31.875Z,8.79
2019-02-10T09:06:02.323Z,8.77
2019-02-10T09:08:32.659Z,8.84
2019-02-10T09:11:03.020Z,8.84
2019-02-10T09:13:33.349Z,8.94
2019-02-10T09:16:03.863Z,9.02
2019-02-10T09:18:34.219Z,8.99
2019-02-10T09:21:07.254Z,9.03
2019-02-10T09:23:38.206Z,9.05
2019-02-10T09:26:09.233Z,9.06
2019-02-10T09:28:39.632Z,9.05
2019-02-10T09:31:10.471Z,9.03
2019-02-10T09:33:40.878Z,9.05
2019-02-10T09:36:11.836Z,9.06
2019-02-10T09:38:42.541Z,9.06
2019-02-10T09:41:13.125Z,8.89
2019-02-10T09:43:43.590Z,8.86
2019-02-10T09:46:14.378Z,8.79
2019-02-10T09:48:44.712Z,8.64
2019-02-10T09:51:15.433Z,8.59
2019-02-10T09:53:45.840Z,8.57
2019-02-10T09:56:16.183Z,8.56
2019-02-10T09:58:46.617Z,8.49
2019-02-10T10:01:17.768Z,8.58
2019-02-10T10:03:48.165Z,8.57
2019-02-10T10:06:18.619Z,8.59
2019-02-10T10:08:49.040Z,8.59
2019-02-10T10:11:24.686Z,8.56
2019-02-10T10:13:59.842Z,8.51
2019-02-10T10:16:30.331Z,8.46
2019-02-10T10:19:00.664Z,8.45
2019-02-10T10:21:30.996Z,8.41
2019-02-10T10:24:01.277Z,8.49
2019-02-10T10:26:31.906Z,8.56
2019-02-10T10:29:02.343Z,8.70
2019-02-10T10:31:35.003Z,8.93
2019-02-10T10:34:08.893Z,9.05
2019-02-10T10:36:43.695Z,9.14
2019-02-10T10:39:14.081Z,9.38
2019-02-10T10:41:44.495Z,9.38
2019-02-10T10:44:14.845Z,9.47
2019-02-10T10:46:47.042Z,9.48
2019-02-10T10:49:17.461Z,9.54
2019-02-10T10:51:47.941Z,9.67
2019-02-10T10:54:20.083Z,9.81
2019-02-10T10:56:53.679Z,9.82
2019-02-10T10:59:24.263Z,9.92
2019-02-10T11:01:54.749Z,9.95
2019-02-10T11:04:25.078Z,10.08
2019-02-10T11:06:55.516Z,10.10
2019-02-10T11:09:25.923Z,10.24
2019-02-10T11:11:56.376Z,10.20
2019-02-10T11:14:26.700Z,10.34
2019-02-10T11:16:57.692Z,10.27
2019-02-10T11:19:28.057Z,10.53
2019-02-10T11:21:59.153Z,10.46
2019-02-10T11:24:29.519Z,10.53
2019-02-10T11:27:00.435Z,10.50
2019-02-10T11:29:30.941Z,10.60
2019-02-10T11:32:01.341Z,10.65
2019-02-10T11:34:32.646Z,10.93
2019-02-10T11:37:03.914Z,10.85
2019-02-10T11:39:34.340Z,10.85
2019-02-10T11:42:36.214Z,10.80
2019-02-10T11:45:09.083Z,10.98
2019-02-10T11:47:40.481Z,11.03
2019-02-10T11:50:11.471Z,10.93
2019-02-10T11:52:42.992Z,11.09
2019-02-10T11:55:13.593Z,10.98
2019-02-10T11:57:44.135Z,10.99
2019-02-10T12:00:15.019Z,10.92
2019-02-10T12:02:45.509Z,10.92
2019-02-10T12:05:15.879Z,10.93
2019-02-10T12:07:49.719Z,11.16
2019-02-10T12:10:21.136Z,11.12
2019-02-10T12:12:52.341Z,11.16
2019-02-10T12:15:22.842Z,11.39
2019-02-10T12:17:53.888Z,11.28
2019-02-10T12:20:24.340Z,11.42
2019-02-10T12:22:54.780Z,11.25
2019-02-10T12:25:25.854Z,11.48
2019-02-10T12:27:56.639Z,11.53
2019-02-10T12:30:27.159Z,11.50
2019-02-10T12:32:57.858Z,11.57
2019-02-10T12:35:29.052Z,11.86
2019-02-10T12:38:00.339Z,11.54
2019-02-10T12:40:30.798Z,11.51
2019-02-10T12:43:03.177Z,11.65
2019-02-10T12:45:35.174Z,11.54
2019-02-10T12:48:06.631Z,11.60
2019-02-10T12:50:39.100Z,11.35
2019-02-10T12:53:09.633Z,11.40
2019-02-10T12:55:40.148Z,11.45
2019-02-10T12:58:11.332Z,11.25
2019-02-10T13:00:41.973Z,11.35
2019-02-10T13:03:12.822Z,11.31
2019-02-10T13:05:44.189Z,11.44
2019-02-10T13:08:14.754Z,11.58
2019-02-10T13:10:45.332Z,11.50
2019-02-10T13:13:19.309Z,11.35
2019-02-10T13:15:50.576Z,11.44
2019-02-10T13:18:23.052Z,11.55
2019-02-10T13:20:54.068Z,11.52
2019-02-10T13:23:24.827Z,11.44
2019-02-10T13:26:03.543Z,11.28
2019-02-10T13:28:34.173Z,11.00
2019-02-10T13:31:04.705Z,11.07
2019-02-10T13:33:35.455Z,11.01
2019-02-10T13:36:07.796Z,11.15
2019-02-10T13:38:38.302Z,11.06
2019-02-10T13:41:13.069Z,11.10
2019-02-10T13:43:44.087Z,11.32
2019-02-10T13:46:15.673Z,11.43
2019-02-10T13:48:46.256Z,11.35
2019-02-10T13:51:17.865Z,11.52
2019-02-10T13:53:48.733Z,11.57
2019-02-10T13:56:19.156Z,11.48
2019-02-10T13:58:49.561Z,11.63
2019-02-10T14:01:20.697Z,11.72
2019-02-10T14:03:51.355Z,11.70
2019-02-10T14:06:22.201Z,11.57
2019-02-10T14:12:21.774Z,11.47
2019-02-10T14:14:53.981Z,11.43
2019-02-10T14:17:24.604Z,11.53
2019-02-10T14:19:55.237Z,11.56
2019-02-10T14:22:25.909Z,11.55
2019-02-10T14:24:56.424Z,11.79
2019-02-10T14:27:26.930Z,11.83
2019-02-10T14:30:00.290Z,11.72
2019-02-10T14:32:32.024Z,11.78
2019-02-10T14:35:05.336Z,11.95
2019-02-10T14:37:36.412Z,11.86
2019-02-10T14:40:07.681Z,11.81
2019-02-10T14:42:38.832Z,11.80
2019-02-10T14:45:09.532Z,11.70
2019-02-10T14:47:41.146Z,11.73
2019-02-10T14:50:13.263Z,11.67
2019-02-10T14:52:43.918Z,11.69
2019-02-10T14:55:18.629Z,11.68
2019-02-10T14:57:50.034Z,11.55
2019-02-10T15:00:20.677Z,11.56
2019-02-10T15:02:51.581Z,11.57
2019-02-10T15:05:22.537Z,11.31
2019-02-10T15:07:56.254Z,11.34
2019-02-10T15:10:27.730Z,11.34
2019-02-10T15:13:00.982Z,11.38
2019-02-10T15:15:33.386Z,11.39
2019-02-10T15:18:05.386Z,11.31
2019-02-10T15:20:36.365Z,11.32
2019-02-10T15:23:07.907Z,11.38
2019-02-10T15:25:38.877Z,11.39
2019-02-10T15:28:12.856Z,11.41
2019-02-10T15:30:44.892Z,11.34
2019-02-10T15:33:15.628Z,11.33
2019-02-10T15:35:46.467Z,11.23
2019-02-10T15:38:20.365Z,11.17
2019-02-10T15:40:52.756Z,11.17
2019-02-10T15:43:23.620Z,11.21
2019-02-10T15:45:54.519Z,11.06
2019-02-10T15:48:42.501Z,11.22
2019-02-10T15:51:47.820Z,11.14
2019-02-10T15:58:01.385Z,10.99
2019-02-10T16:00:32.577Z,11.00
2019-02-10T16:03:04.092Z,10.85
2019-02-10T16:05:35.452Z,10.83
2019-02-10T16:08:07.854Z,10.82
2019-02-10T16:10:39.086Z,10.74
2019-02-10T16:13:11.437Z,10.77
2019-02-10T16:15:43.400Z,10.67
2019-02-10T16:18:14.660Z,10.53
2019-02-10T16:20:45.447Z,10.72
2019-02-10T16:23:16.481Z,10.58
2019-02-10T16:25:55.091Z,10.55
2019-02-10T16:28:26.158Z,10.49
2019-02-10T16:30:56.972Z,10.52
2019-02-10T16:33:27.546Z,10.49
2019-02-10T16:35:58.369Z,10.45
2019-02-10T16:38:29.109Z,10.41
2019-02-10T16:41:06.211Z,10.23
2019-02-10T16:43:32.983Z,10.30
2019-02-10T16:46:04.845Z,10.27
2019-02-10T16:48:35.820Z,10.22
2019-02-10T16:51:09.085Z,10.29
2019-02-10T16:53:40.389Z,10.15
2019-02-10T16:56:11.055Z,10.08
2019-02-10T16:58:45.692Z,10.07
2019-02-10T17:01:17.180Z,10.07
2019-02-10T17:03:47.908Z,10.07
2019-02-10T17:06:18.605Z,10.04
2019-02-10T17:08:49.321Z,9.92
2019-02-10T17:11:20.132Z,9.94
2019-02-10T17:13:50.804Z,9.95
2019-02-10T17:16:21.609Z,10.04
2019-02-10T17:18:53.883Z,10.08
2019-02-10T17:21:24.950Z,10.03
2019-02-10T17:23:57.726Z,10.00
2019-02-10T17:26:28.541Z,9.90
2019-02-10T17:28:59.712Z,9.88
2019-02-10T17:31:30.463Z,10.01
2019-02-10T17:34:01.344Z,9.88
2019-02-10T17:36:32.270Z,9.89
2019-02-10T17:39:03.789Z,9.84
2019-02-10T17:41:39.581Z,9.78
2019-02-10T17:44:10.832Z,9.87
2019-02-10T17:46:41.946Z,9.76
2019-02-10T17:49:12.570Z,9.72
2019-02-10T17:51:44.220Z,9.86
2019-02-10T17:54:15.767Z,9.81
2019-02-10T17:56:46.459Z,9.78
2019-02-10T17:59:17.231Z,9.92
2019-02-10T18:01:50.455Z,9.89
2019-02-10T18:04:21.811Z,9.97
2019-02-10T18:06:52.425Z,10.00
2019-02-10T18:09:23.814Z,10.10
2019-02-10T18:11:54.462Z,10.09
2019-02-10T18:14:52.834Z,10.08
2019-02-10T18:17:37.794Z,10.10
2019-02-10T18:20:34.079Z,10.06
2019-02-10T18:23:32.609Z,9.96
2019-02-10T18:26:27.883Z,9.99
2019-02-10T18:29:23.691Z,9.96
2019-02-10T18:32:16.242Z,10.02
2019-02-10T18:35:06.070Z,10.04
2019-02-10T18:38:01.981Z,9.96
2019-02-10T18:40:54.132Z,10.09
2019-02-10T18:43:47.179Z,10.08
2019-02-10T18:46:37.712Z,10.19
2019-02-10T18:49:20.267Z,10.10
2019-02-10T18:52:10.069Z,10.14
2019-02-10T18:55:05.558Z,10.11
2019-02-10T18:57:55.441Z,10.05
2019-02-10T19:00:38.044Z,10.10
2019-02-10T19:03:45.696Z,10.05
2019-02-10T19:06:33.173Z,9.99
2019-02-10T19:09:14.289Z,9.99
2019-02-10T19:12:15.726Z,10.00
2019-02-10T19:15:03.937Z,9.92
2019-02-10T19:17:45.258Z,9.88
2019-02-10T19:20:37.666Z,9.81
2019-02-10T19:23:17.340Z,9.62
2019-02-10T19:26:09.811Z,9.62
2019-02-10T19:28:53.124Z,9.64
2019-02-10T19:31:36.508Z,9.61
2019-02-10T19:34:44.081Z,9.62
2019-02-10T19:37:39.167Z,9.55
2019-02-10T19:40:35.458Z,9.40
2019-02-10T19:43:28.524Z,9.34
2019-02-10T19:46:24.116Z,9.36
2019-02-10T19:49:26.714Z,9.41
2019-02-10T19:52:12.926Z,9.26
2019-02-10T19:55:16.241Z,9.16
2019-02-10T19:58:06.460Z,9.27
2019-02-10T20:00:54.993Z,9.09
2019-02-10T20:03:51.957Z,9.08
2019-02-10T20:06:37.755Z,9.18
2019-02-10T20:09:40.462Z,9.07
2019-02-10T20:12:39.165Z,9.18
2019-02-10T20:15:16.812Z,9.12
2019-02-10T20:18:06.241Z,9.06
2019-02-10T20:20:55.651Z,9.12
2019-02-10T20:23:47.990Z,9.10
2019-02-10T20:26:37.657Z,9.17
2019-02-10T20:29:24.603Z,9.12
2019-02-10T20:32:29.040Z,9.05
2019-02-10T20:35:08.587Z,9.14
2019-02-10T20:38:00.657Z,9.15
2019-02-10T20:40:53.284Z,9.15
2019-02-10T20:43:48.369Z,9.16
2019-02-10T20:46:29.771Z,9.23
2019-02-10T20:49:21.985Z,9.17
2019-02-10T20:52:14.402Z,9.26
2019-02-10T20:55:02.119Z,9.22
2019-02-10T20:57:55.492Z,9.09
2019-02-10T21:00:51.191Z,9.00
2019-02-10T21:03:29.932Z,8.84
2019-02-10T21:06:37.912Z,8.85
2019-02-10T21:09:24.239Z,8.79
2019-02-10T21:12:20.699Z,8.71
2019-02-10T21:15:05.693Z,8.64
2019-02-10T21:17:53.343Z,8.65
2019-02-10T21:20:35.843Z,8.69
2019-02-10T21:23:11.931Z,8.68
2019-02-10T21:25:52.748Z,8.72
2019-02-10T21:28:35.102Z,8.84
2019-02-10T21:31:23.061Z,8.68
2019-02-10T21:34:12.470Z,8.61
2019-02-10T21:37:01.948Z,8.43
2019-02-10T21:39:39.016Z,8.33
2019-02-10T21:42:29.058Z,8.41
2019-02-10T21:45:25.642Z,8.39
2019-02-10T21:48:14.531Z,8.26
2019-02-10T21:50:45.836Z,8.23
2019-02-10T21:53:16.320Z,8.35
2019-02-10T21:55:46.997Z,8.37
2019-02-10T21:58:18.056Z,8.28
2019-02-10T22:00:54.203Z,8.23
2019-02-10T22:03:25.081Z,8.28
2019-02-10T22:05:55.815Z,8.21
2019-02-10T22:08:26.322Z,8.14
2019-02-10T22:10:56.851Z,8.15
2019-02-10T22:13:27.807Z,8.10
2019-02-10T22:15:58.826Z,8.04
2019-02-10T22:18:29.508Z,8.12
2019-02-10T22:21:01.122Z,8.06
2019-02-10T22:23:32.519Z,8.06
2019-02-10T22:26:08.365Z,8.06
2019-02-10T22:28:38.713Z,7.95
2019-02-10T22:31:09.252Z,7.96
2019-02-10T22:33:39.591Z,7.94
2019-02-10T22:36:12.203Z,7.89
2019-02-10T22:38:42.722Z,7.81
2019-02-10T22:41:13.133Z,7.76
2019-02-10T22:43:44.229Z,7.78
2019-02-10T22:46:15.965Z,7.62
2019-02-10T22:48:47.404Z,7.61
2019-02-10T22:51:17.884Z,7.52
2019-02-10T22:53:48.325Z,7.54
2019-02-10T22:56:19.863Z,7.57
2019-02-10T22:58:50.621Z,7.47
2019-02-10T23:01:21.208Z,7.47
2019-02-10T23:03:51.782Z,7.55
2019-02-10T23:06:22.425Z,7.57
2019-02-10T23:08:53.012Z,7.53
2019-02-10T23:11:23.501Z,7.62
2019-02-10T23:13:53.857Z,7.53
2019-02-10T23:16:24.735Z,7.58
2019-02-10T23:18:55.533Z,7.61
2019-02-10T23:21:26.092Z,7.67
2019-02-10T23:23:56.769Z,7.71
2019-02-10T23:26:27.162Z,7.68
2019-02-10T23:28:57.634Z,7.57
2019-02-10T23:31:28.413Z,7.59
2019-02-10T23:33:58.857Z,7.53
2019-02-10T23:36:29.412Z,7.46
2019-02-10T23:38:59.958Z,7.54
2019-02-10T23:41:30.334Z,7.52
2019-02-10T23:44:01.222Z,7.47
2019-02-10T23:46:31.700Z,7.44
2019-02-10T23:49:02.385Z,7.39
2019-02-10T23:51:32.736Z,7.37
2019-02-10T23:54:03.703Z,7.39
2019-02-10T23:56:34.267Z,7.48
2019-02-10T23:59:05.795Z,7.30
